Archival Weather

Dallas-Fort Worth Intl

Dallas-Fort Worth, Texas (KDFW)

Report from: Thursday, September 21, 2023 4:53 PM CDT
Current time: Friday, February 23, 2024 1:11 PM CST

Current weather – Weather history – Daily summaries
Weather forecast

Temperature32.8°C (91.0°F)
Heat index36.5°C (97.7°F)
Dew point21.7°C (71.1°F)
Winds 14 kts (7.2 m/s, 16.1 mph) Southeast (140°)
Wind gusts 22 kts (11.3 m/s, 25.3 mph)
Visibility10 mi. (16.1 km)
Clouds Few clouds 5,000 ft. (1,524 m)
Scattered clouds 10,000 ft. (3,048 m)
Ceiling: Broken clouds 19,000 ft. (5,791 m)
Broken clouds 25,000 ft. (7,620 m)
Altimeter29.91 in.Hg (1013 mB)
Relative humidity52 %
Density altitude2,423 ft. (739 m)
Sea-level pressure101.2 kPa (1012 mB, 29.88 in.Hg)
Remarks Automated weather observing station with precipitation discriminator
Cumulonimbus clouds observed distant northwest northeast moving east
Flight conditions Visual Meteorological Conditions
Raw dataKDFW 212153Z 14014G22KT 10SM FEW050 SCT100 BKN190 BKN250 33/22 A2991 RMK AO2 SLP119 CB DSNT NW-NE MOV E T03280217
An error has occurred. This application may no longer respond until reloaded. Reload 🗙